Time;durP1;ratioP1;P1;durP2;ratioP2;P2;SDS_P1;SDS_P2;PMS_P1;PMS_P2;Temp;Humidity;BMP_temperature;BMP_pressure;BME280_temperature;BME280_humidity;BME280_pressure;Samples;Min_cycle;Max_cycle;Signal;HPM_P1;HPM_P2
2021/07/12 00:02:38;;;;;;;2.07;1.27;;;;;;;;;;4826037;28;20213;-77
2021/07/12 00:05:19;;;;;;;1.73;1.20;;;16.30;31.80;;;;;;4818433;28;20188;-77
2021/07/12 00:08:01;;;;;;;0.97;0.67;;;16.20;31.70;;;;;;4830083;28;20178;-77
2021/07/12 00:10:43;;;;;;;1.10;0.70;;;16.30;31.90;;;;;;4826700;28;20179;-76
2021/07/12 00:13:25;;;;;;;2.83;1.43;;;16.30;32.00;;;;;;4814160;28;20716;-77
2021/07/12 00:16:06;;;;;;;0.57;0.57;;;;;;;;;;4815223;28;20215;-76
2021/07/12 00:18:47;;;;;;;0.40;0.40;;;16.10;31.60;;;;;;4833188;28;20187;-79
2021/07/12 00:21:28;;;;;;;0.50;0.50;;;16.30;31.70;;;;;;4822705;28;20235;-76
2021/07/12 00:24:10;;;;;;;0.70;0.63;;;;;;;;;;4832840;28;20178;-77
2021/07/12 00:26:52;;;;;;;0.67;0.47;;;16.30;31.80;;;;;;4834190;28;20183;-77
2021/07/12 00:29:33;;;;;;;1.90;1.10;;;16.10;31.60;;;;;;4846921;28;20191;-79
2021/07/12 00:32:15;;;;;;;0.90;0.70;;;;;;;;;;4834335;28;20460;-81
2021/07/12 00:34:56;;;;;;;1.00;0.60;;;;;;;;;;4822711;28;20704;-76
2021/07/12 00:37:38;;;;;;;0.83;0.57;;;16.10;31.80;;;;;;4821718;28;20179;-78
2021/07/12 00:40:22;;;;;;;1.60;1.13;;;15.80;32.00;;;;;;4827983;28;20219;-77
2021/07/12 00:43:05;;;;;;;0.83;0.70;;;15.10;31.40;;;;;;4817088;28;20290;-77
2021/07/12 00:45:47;;;;;;;0.97;0.67;;;;;;;;;;4828335;28;20222;-76
2021/07/12 00:48:28;;;;;;;2.40;1.70;;;15.80;31.70;;;;;;4821203;28;20717;-78
2021/07/12 00:51:10;;;;;;;0.70;0.60;;;15.40;31.50;;;;;;4814966;28;20187;-76
2021/07/12 00:53:52;;;;;;;0.77;0.67;;;15.60;31.90;;;;;;4828199;28;20653;-78
2021/07/12 00:56:41;;;;;;;0.47;0.47;;;15.40;31.40;;;;;;4834079;28;20183;-77
2021/07/12 00:59:26;;;;;;;0.53;0.53;;;15.60;31.80;;;;;;4843099;28;20180;-78
2021/07/12 01:02:08;;;;;;;0.30;0.30;;;15.50;31.60;;;;;;4842537;28;20570;-77
2021/07/12 01:04:50;;;;;;;0.30;0.30;;;15.70;31.40;;;;;;4808646;28;20681;-78
2021/07/12 01:07:31;;;;;;;1.13;0.80;;;;;;;;;;4819672;28;20171;-79
2021/07/12 01:10:15;;;;;;;0.40;0.40;;;15.70;31.40;;;;;;4828536;28;20195;-78
2021/07/12 01:13:27;;;;;;;0.37;0.37;;;15.60;31.30;;;;;;4806455;28;20646;-77
2021/07/12 01:16:20;;;;;;;0.27;0.27;;;15.40;31.20;;;;;;4810319;28;20211;-76
2021/07/12 01:19:18;;;;;;;0.53;0.53;;;15.50;31.60;;;;;;4841136;28;20191;-80
2021/07/12 01:22:26;;;;;;;0.30;0.30;;;15.70;31.40;;;;;;4830461;28;20207;-78
2021/07/12 01:26:02;;;;;;;0.20;0.20;;;15.40;31.30;;;;;;4828117;28;20548;-77
2021/07/12 01:29:15;;;;;;;0.20;0.20;;;15.60;31.30;;;;;;4819729;28;20638;-78
2021/07/12 01:32:31;;;;;;;0.20;0.20;;;16.00;31.50;;;;;;4826813;28;20190;-78
2021/07/12 01:35:21;;;;;;;0.27;0.27;;;15.60;31.30;;;;;;4794017;28;20193;-78
2021/07/12 01:38:15;;;;;;;0.30;0.30;;;15.30;31.50;;;;;;4817114;28;20189;-79
2021/07/12 01:41:34;;;;;;;0.40;0.40;;;15.20;31.60;;;;;;4826074;28;20188;-77
2021/07/12 01:44:31;;;;;;;0.20;0.20;;;15.10;31.60;;;;;;4842075;28;20226;-78
2021/07/12 01:47:15;;;;;;;0.23;0.23;;;15.30;31.50;;;;;;4843062;28;20194;-78
2021/07/12 01:50:04;;;;;;;0.10;0.10;;;15.10;31.60;;;;;;4824703;28;20637;-77
2021/07/12 01:53:03;;;;;;;0.10;0.10;;;15.70;31.50;;;;;;4815983;28;20544;-79
2021/07/12 01:55:55;;;;;;;0.10;0.10;;;15.30;31.30;;;;;;4810210;28;20179;-77
2021/07/12 01:58:40;;;;;;;0.20;0.20;;;15.40;31.30;;;;;;4829676;28;20222;-77
2021/07/12 02:01:25;;;;;;;0.10;0.10;;;15.50;31.30;;;;;;4835831;28;20731;-78
2021/07/12 02:04:14;;;;;;;0.17;0.17;;;15.30;31.50;;;;;;4840137;28;20188;-78
2021/07/12 02:06:59;;;;;;;0.10;0.10;;;15.30;31.50;;;;;;4842102;28;20195;-80
2021/07/12 02:09:48;;;;;;;0.10;0.10;;;15.30;31.50;;;;;;4829239;28;20187;-77
2021/07/12 02:12:31;;;;;;;0.30;0.30;;;15.30;31.50;;;;;;4819419;28;20171;-79
2021/07/12 02:15:15;;;;;;;0.10;0.10;;;15.30;31.50;;;;;;4842194;28;20183;-76
2021/07/12 02:17:58;;;;;;;0.10;0.10;;;15.50;31.30;;;;;;4824297;28;20195;-78
2021/07/12 02:20:50;;;;;;;0.00;0.00;;;15.10;31.30;;;;;;4824869;28;20259;-82
2021/07/12 02:23:35;;;;;;;0.20;0.20;;;15.30;31.30;;;;;;4829741;28;20210;-82
2021/07/12 02:26:17;;;;;;;0.13;0.13;;;15.20;31.20;;;;;;4841648;28;20548;-82
2021/07/12 02:29:02;;;;;;;0.07;0.07;;;15.20;31.50;;;;;;4825060;28;20656;-81
2021/07/12 02:31:47;;;;;;;0.03;0.03;;;15.10;31.30;;;;;;4843458;28;20174;-83
2021/07/12 02:34:29;;;;;;;0.20;0.20;;;15.80;31.60;;;;;;4844646;28;20179;-82
2021/07/12 02:37:14;;;;;;;0.20;0.20;;;15.60;31.30;;;;;;4840378;28;20218;-82
2021/07/12 02:39:57;;;;;;;0.10;0.10;;;15.60;31.50;;;;;;4842923;28;20515;-81
2021/07/12 02:42:43;;;;;;;0.13;0.13;;;15.40;31.20;;;;;;4835072;28;20203;-82
2021/07/12 02:45:31;;;;;;;0.10;0.10;;;15.60;31.50;;;;;;4819785;28;20703;-77
2021/07/12 02:48:14;;;;;;;0.20;0.20;;;15.60;31.40;;;;;;4828938;28;20192;-82
2021/07/12 02:50:58;;;;;;;0.10;0.10;;;15.60;31.60;;;;;;4841402;28;20720;-81
2021/07/12 02:53:45;;;;;;;0.10;0.10;;;16.00;31.40;;;;;;4806128;28;20183;-82
2021/07/12 02:56:29;;;;;;;0.20;0.20;;;15.80;31.60;;;;;;4834724;28;20175;-82
2021/07/12 02:59:12;;;;;;;0.20;0.20;;;;;;;;;;4835507;28;20187;-82
2021/07/12 03:01:55;;;;;;;0.07;0.07;;;;;;;;;;4823938;28;20543;-82
2021/07/12 03:04:37;;;;;;;0.10;0.10;;;;;;;;;;4837846;28;20183;-81
2021/07/12 03:07:23;;;;;;;0.17;0.17;;;16.10;31.40;;;;;;4824622;28;20191;-82
2021/07/12 03:10:09;;;;;;;0.00;0.00;;;16.30;31.40;;;;;;4837264;28;20184;-80
2021/07/12 03:12:53;;;;;;;0.10;0.10;;;16.40;31.50;;;;;;4834429;28;20183;-81
2021/07/12 03:15:41;;;;;;;0.10;0.10;;;16.40;31.50;;;;;;4840815;28;20187;-82
2021/07/12 03:18:28;;;;;;;0.10;0.10;;;16.30;31.70;;;;;;4835041;28;20187;-82
2021/07/12 03:21:10;;;;;;;0.10;0.10;;;;;;;;;;4818616;28;20187;-82
2021/07/12 03:23:54;;;;;;;0.03;0.03;;;16.70;31.70;;;;;;4839502;28;20703;-82
2021/07/12 03:26:42;;;;;;;0.00;0.00;;;16.90;31.60;;;;;;4839138;28;20183;-80
2021/07/12 03:29:28;;;;;;;0.10;0.10;;;16.80;31.50;;;;;;4824772;28;20179;-83
2021/07/12 03:32:12;;;;;;;0.10;0.10;;;16.90;31.60;;;;;;4838164;28;20187;-82
2021/07/12 03:34:57;;;;;;;0.10;0.10;;;16.80;31.80;;;;;;4827141;28;20191;-79
2021/07/12 03:37:38;;;;;;;0.10;0.10;;;16.90;31.60;;;;;;4839977;28;20187;-82
2021/07/12 03:40:21;;;;;;;0.20;0.20;;;17.20;31.70;;;;;;4820051;28;20657;-82
2021/07/12 03:43:03;;;;;;;0.10;0.10;;;16.60;31.50;;;;;;4847298;28;20555;-81
2021/07/12 03:45:55;;;;;;;0.10;0.10;;;16.90;31.90;;;;;;4828206;28;20218;-82
2021/07/12 03:48:39;;;;;;;0.10;0.10;;;17.30;31.80;;;;;;4819971;28;20175;-81
2021/07/12 03:51:23;;;;;;;0.10;0.10;;;17.00;32.10;;;;;;4826560;28;20183;-83
2021/07/12 03:54:09;;;;;;;0.20;0.20;;;16.20;31.70;;;;;;4838546;28;20242;-83
2021/07/12 03:56:50;;;;;;;0.10;0.10;;;17.50;32.10;;;;;;4829929;28;20199;-82
2021/07/12 03:59:31;;;;;;;0.10;0.10;;;;;;;;;;4817988;28;20183;-83
2021/07/12 04:02:15;;;;;;;0.10;0.10;;;17.60;32.40;;;;;;4823574;28;20683;-81
2021/07/12 04:04:56;;;;;;;0.10;0.10;;;;;;;;;;4833509;28;20606;-82
2021/07/12 04:07:38;;;;;;;0.00;0.00;;;16.50;32.20;;;;;;4819617;28;20180;-82
2021/07/12 04:10:19;;;;;;;0.10;0.10;;;17.30;33.00;;;;;;4826052;28;20539;-81
2021/07/12 04:13:01;;;;;;;0.10;0.10;;;17.40;33.10;;;;;;4825821;28;20219;-81
2021/07/12 04:15:43;;;;;;;0.10;0.10;;;;;;;;;;4825047;28;20269;-83
2021/07/12 04:18:26;;;;;;;0.27;0.27;;;17.40;33.90;;;;;;4836523;28;20227;-79
2021/07/12 04:21:07;;;;;;;0.10;0.10;;;;;;;;;;4828774;28;20529;-81
2021/07/12 04:23:49;;;;;;;0.10;0.10;;;17.50;34.30;;;;;;4828061;28;20206;-80
2021/07/12 04:26:30;;;;;;;0.10;0.10;;;17.90;34.20;;;;;;4821085;28;20520;-82
2021/07/12 04:29:11;;;;;;;0.10;0.10;;;17.20;33.70;;;;;;4839633;28;20274;-79
2021/07/12 04:31:52;;;;;;;0.00;0.00;;;18.00;33.70;;;;;;4818023;28;20180;-81
2021/07/12 04:34:34;;;;;;;0.10;0.10;;;17.20;33.20;;;;;;4828625;28;20179;-79
2021/07/12 04:37:15;;;;;;;0.10;0.10;;;17.40;33.50;;;;;;4830858;28;20187;-77
2021/07/12 04:39:56;;;;;;;0.10;0.10;;;18.30;33.50;;;;;;4834034;28;20187;-77
2021/07/12 04:42:39;;;;;;;0.10;0.10;;;18.30;33.40;;;;;;4827277;28;20704;-78
2021/07/12 04:45:20;;;;;;;0.10;0.10;;;17.50;33.10;;;;;;4849196;28;20301;-76
2021/07/12 04:48:05;;;;;;;0.20;0.20;;;18.30;33.60;;;;;;4829570;28;20184;-75
2021/07/12 04:50:50;;;;;;;0.00;0.00;;;18.10;33.60;;;;;;4810935;28;20188;-75
2021/07/12 04:53:31;;;;;;;0.10;0.10;;;18.20;33.50;;;;;;4818186;28;20190;-75
2021/07/12 04:56:12;;;;;;;0.20;0.20;;;18.60;34.10;;;;;;4823849;28;20191;-76
2021/07/12 04:58:53;;;;;;;0.00;0.00;;;18.30;34.40;;;;;;4824672;28;20211;-75
2021/07/12 05:01:34;;;;;;;0.10;0.10;;;;;;;;;;4846639;28;20274;-77
2021/07/12 05:04:15;;;;;;;0.10;0.10;;;;;;;;;;4830154;28;20648;-76
2021/07/12 05:06:58;;;;;;;0.00;0.00;;;18.70;35.50;;;;;;4843936;28;20182;-76
2021/07/12 05:09:39;;;;;;;0.07;0.07;;;19.20;35.70;;;;;;4825626;28;20178;-77
2021/07/12 05:12:21;;;;;;;0.10;0.10;;;19.20;36.20;;;;;;4827885;28;20187;-75
2021/07/12 05:15:03;;;;;;;0.27;0.27;;;;;;;;;;4827108;28;20183;-76
2021/07/12 05:17:44;;;;;;;0.10;0.10;;;;;;;;;;4820595;28;20187;-75
2021/07/12 05:20:25;;;;;;;0.10;0.10;;;19.20;37.50;;;;;;4832089;28;20191;-77
2021/07/12 05:23:08;;;;;;;0.20;0.20;;;19.20;37.40;;;;;;4833825;28;20203;-76
2021/07/12 05:25:49;;;;;;;0.10;0.10;;;19.40;38.00;;;;;;4838443;28;20179;-77
2021/07/12 05:28:30;;;;;;;0.40;0.40;;;19.30;37.70;;;;;;4818873;28;20179;-76
2021/07/12 05:31:11;;;;;;;0.10;0.10;;;;;;;;;;4817511;28;20180;-78
2021/07/12 05:33:52;;;;;;;0.10;0.10;;;19.30;37.20;;;;;;4830866;28;20188;-78
2021/07/12 05:36:33;;;;;;;0.10;0.10;;;19.50;37.00;;;;;;4807851;28;20215;-80
2021/07/12 05:39:16;;;;;;;0.30;0.30;;;19.40;36.50;;;;;;4828085;28;20192;-77
2021/07/12 05:41:57;;;;;;;0.10;0.10;;;;;;;;;;4829511;28;20538;-78
2021/07/12 05:44:38;;;;;;;0.30;0.20;;;18.90;36.30;;;;;;4822463;28;20247;-77
2021/07/12 05:47:19;;;;;;;0.10;0.10;;;19.50;36.60;;;;;;4835763;28;20753;-77
2021/07/12 05:50:01;;;;;;;0.23;0.23;;;19.30;36.50;;;;;;4840033;28;20275;-77
2021/07/12 05:52:42;;;;;;;0.10;0.10;;;;;;;;;;4821422;28;20179;-78
2021/07/12 05:55:25;;;;;;;0.30;0.30;;;19.70;37.20;;;;;;4836380;28;20191;-77
2021/07/12 05:58:06;;;;;;;0.20;0.20;;;;;;;;;;4828164;28;20251;-78
2021/07/12 06:00:47;;;;;;;0.60;0.60;;;;;;;;;;4838824;28;20199;-77
2021/07/12 06:03:28;;;;;;;0.13;0.13;;;20.00;38.10;;;;;;4852418;28;20610;-77
2021/07/12 06:06:09;;;;;;;0.37;0.37;;;19.70;38.00;;;;;;4840592;28;20185;-79
2021/07/12 06:08:50;;;;;;;0.10;0.10;;;20.60;39.20;;;;;;4839034;28;20184;-79
2021/07/12 06:11:32;;;;;;;0.40;0.40;;;19.50;40.10;;;;;;4851541;28;20200;-78
2021/07/12 06:14:14;;;;;;;0.30;0.30;;;20.50;40.60;;;;;;4830007;28;20198;-78
2021/07/12 06:16:55;;;;;;;0.33;0.33;;;20.70;41.20;;;;;;4820480;28;20189;-79
2021/07/12 06:19:36;;;;;;;0.20;0.20;;;20.60;42.60;;;;;;4818643;28;20860;-77
2021/07/12 06:22:17;;;;;;;0.20;0.20;;;20.90;42.90;;;;;;4831828;28;20606;-80
2021/07/12 06:24:58;;;;;;;0.30;0.30;;;;;;;;;;4830667;28;20208;-81
2021/07/12 06:27:41;;;;;;;0.10;0.10;;;20.50;43.10;;;;;;4820320;28;20183;-80
2021/07/12 06:30:22;;;;;;;0.20;0.20;;;20.80;44.00;;;;;;4825034;28;20182;-81
2021/07/12 06:33:04;;;;;;;0.40;0.40;;;;;;;;;;4800456;28;20214;-81
2021/07/12 06:35:45;;;;;;;0.20;0.20;;;22.10;45.60;;;;;;4824270;28;20223;-80
2021/07/12 06:38:26;;;;;;;0.53;0.53;;;21.70;46.40;;;;;;4819306;28;20192;-80
2021/07/12 06:41:07;;;;;;;0.30;0.30;;;21.80;48.10;;;;;;4819477;28;20189;-81
2021/07/12 06:43:51;;;;;;;0.30;0.30;;;22.30;48.90;;;;;;4831984;28;20212;-80
2021/07/12 06:46:40;;;;;;;0.10;0.10;;;22.30;49.20;;;;;;4826995;28;20520;-82
2021/07/12 06:49:21;;;;;;;0.20;0.20;;;23.00;49.60;;;;;;4850641;28;20189;-80
2021/07/12 06:52:02;;;;;;;0.30;0.30;;;22.80;50.10;;;;;;4848084;28;20546;-80
2021/07/12 06:54:45;;;;;;;0.50;0.50;;;23.10;50.20;;;;;;4829062;28;20651;-82
2021/07/12 06:57:26;;;;;;;0.30;0.30;;;22.80;50.10;;;;;;4829396;28;20216;-78
2021/07/12 07:00:10;;;;;;;0.40;0.40;;;23.10;50.30;;;;;;4826670;28;20186;-80
2021/07/12 07:03:09;;;;;;;0.47;0.40;;;22.50;50.70;;;;;;4812726;28;20644;-78
2021/07/12 07:05:50;;;;;;;0.10;0.10;;;22.80;51.10;;;;;;4831924;28;20195;-83
2021/07/12 07:09:00;;;;;;;0.33;0.33;;;23.00;51.30;;;;;;4817415;28;20202;-80
2021/07/12 07:11:42;;;;;;;0.30;0.30;;;;;;;;;;4832458;28;20181;-81
2021/07/12 07:14:23;;;;;;;0.33;0.33;;;;;;;;;;4819641;28;20207;-76
2021/07/12 07:17:06;;;;;;;0.60;0.60;;;23.00;51.80;;;;;;4818330;28;20182;-75
2021/07/12 07:19:47;;;;;;;0.20;0.20;;;;;;;;;;4818695;28;20648;-77
2021/07/12 07:22:28;;;;;;;0.20;0.20;;;23.20;51.30;;;;;;4819322;28;20185;-76
2021/07/12 07:25:10;;;;;;;0.53;0.50;;;23.10;51.30;;;;;;4818944;28;20212;-75
2021/07/12 07:27:55;;;;;;;0.20;0.20;;;22.90;50.90;;;;;;4828015;28;20198;-77
2021/07/12 07:30:37;;;;;;;0.10;0.10;;;;;;;;;;4817451;28;20193;-76
2021/07/12 07:33:21;;;;;;;0.13;0.13;;;22.30;50.70;;;;;;4822495;28;20186;-76
2021/07/12 07:36:03;;;;;;;0.20;0.20;;;;;;;;;;4804605;28;20182;-78
2021/07/12 07:38:44;;;;;;;0.40;0.40;;;22.20;50.50;;;;;;4830554;28;20256;-77
2021/07/12 07:41:25;;;;;;;0.70;0.40;;;22.10;50.20;;;;;;4818240;28;20185;-77
2021/07/12 07:44:06;;;;;;;0.53;0.53;;;21.90;49.80;;;;;;4799955;28;20265;-77
2021/07/12 07:46:48;;;;;;;0.13;0.13;;;21.50;49.60;;;;;;4799505;28;20178;-77
2021/07/12 07:49:31;;;;;;;0.43;0.37;;;21.70;49.70;;;;;;4798838;28;20180;-77
2021/07/12 07:52:12;;;;;;;0.30;0.30;;;21.10;49.30;;;;;;4826413;28;20179;-78
2021/07/12 07:54:54;;;;;;;0.27;0.27;;;;;;;;;;4830297;28;20640;-78
2021/07/12 07:57:34;;;;;;;0.20;0.20;;;21.10;48.80;;;;;;4825273;28;20296;-78
2021/07/12 08:00:18;;;;;;;0.20;0.20;;;21.00;48.70;;;;;;4825135;28;20660;-79
2021/07/12 08:03:00;;;;;;;0.20;0.20;;;20.70;47.70;;;;;;4830643;28;20204;-77
2021/07/12 08:05:42;;;;;;;0.30;0.30;;;21.00;47.10;;;;;;4818498;28;20550;-78
2021/07/12 08:08:23;;;;;;;0.40;0.40;;;;;;;;;;4840545;28;20191;-77
2021/07/12 08:11:04;;;;;;;0.30;0.30;;;20.40;46.60;;;;;;4827771;28;20191;-77
2021/07/12 08:13:46;;;;;;;0.20;0.20;;;20.90;46.00;;;;;;4825390;28;20178;-77
2021/07/12 08:16:27;;;;;;;0.00;0.00;;;21.00;45.50;;;;;;4829644;28;20204;-77
2021/07/12 08:19:08;;;;;;;0.37;0.37;;;20.80;45.00;;;;;;4828780;28;20193;-77
2021/07/12 08:21:50;;;;;;;0.10;0.10;;;20.60;45.50;;;;;;4831523;28;20657;-78
2021/07/12 08:24:32;;;;;;;0.27;0.27;;;20.60;45.50;;;;;;4837927;28;20254;-79
2021/07/12 08:27:12;;;;;;;0.33;0.33;;;20.00;44.40;;;;;;4821805;28;20187;-82
2021/07/12 08:29:53;;;;;;;0.20;0.20;;;20.00;43.80;;;;;;4821245;28;20178;-86
2021/07/12 08:32:35;;;;;;;0.20;0.20;;;19.70;43.30;;;;;;4822179;28;20256;-86
2021/07/12 08:35:16;;;;;;;0.93;0.93;;;19.00;43.00;;;;;;4812970;28;20207;-84
2021/07/12 08:37:59;;;;;;;0.17;0.17;;;19.80;42.80;;;;;;4819756;28;20198;-75
2021/07/12 08:40:40;;;;;;;0.20;0.20;;;;;;;;;;4817585;28;20523;-80
2021/07/12 08:43:22;;;;;;;0.30;0.30;;;;;;;;;;4826824;28;20175;-86
2021/07/12 08:46:03;;;;;;;0.40;0.40;;;;;;;;;;4836266;28;20289;-81
2021/07/12 08:48:44;;;;;;;0.40;0.40;;;;;;;;;;4823043;28;20197;-82
2021/07/12 08:51:25;;;;;;;0.17;0.17;;;;;;;;;;4835765;28;20511;-85
2021/07/12 08:54:08;;;;;;;0.40;0.40;;;19.80;40.50;;;;;;4854032;28;20180;-87
2021/07/12 08:56:49;;;;;;;0.17;0.17;;;;;;;;;;4835703;28;20206;-86
2021/07/12 08:59:32;;;;;;;0.20;0.20;;;20.20;41.60;;;;;;4822143;28;20207;-80
2021/07/12 09:02:15;;;;;;;0.50;0.50;;;20.30;42.20;;;;;;4821073;28;20191;-86
2021/07/12 09:04:57;;;;;;;0.30;0.30;;;;;;;;;;4828278;28;20221;-75
2021/07/12 09:07:37;;;;;;;0.17;0.17;;;20.50;42.90;;;;;;4826584;28;20182;-76
2021/07/12 09:10:21;;;;;;;0.33;0.33;;;20.50;43.70;;;;;;4842328;28;20190;-74
2021/07/12 09:13:02;;;;;;;0.47;0.47;;;20.60;43.20;;;;;;4830787;28;20649;-75
2021/07/12 09:15:43;;;;;;;0.23;0.23;;;20.70;44.00;;;;;;4821899;28;20262;-77
2021/07/12 09:18:24;;;;;;;0.60;0.57;;;19.90;43.80;;;;;;4821679;28;20182;-84
2021/07/12 09:21:17;;;;;;;0.67;0.67;;;20.40;44.30;;;;;;4822525;28;20200;-80
2021/07/12 09:24:16;;;;;;;0.30;0.30;;;20.90;44.90;;;;;;4822939;28;20222;-77
2021/07/12 09:27:02;;;;;;;0.10;0.10;;;20.50;45.20;;;;;;4810266;28;20274;-75
2021/07/12 09:29:45;;;;;;;0.30;0.30;;;20.30;44.80;;;;;;4820144;28;20185;-85
2021/07/12 09:32:28;;;;;;;0.20;0.20;;;21.20;45.10;;;;;;4815536;28;20530;-86
2021/07/12 09:35:11;;;;;;;0.30;0.30;;;20.60;45.20;;;;;;4801362;28;20181;-85
2021/07/12 09:37:57;;;;;;;0.23;0.23;;;21.10;46.70;;;;;;4813951;28;20258;-76
2021/07/12 09:40:39;;;;;;;0.27;0.27;;;;;;;;;;4813979;28;20186;-77
2021/07/12 09:43:32;;;;;;;0.30;0.30;;;21.70;48.20;;;;;;4831255;28;20219;-76
2021/07/12 09:46:28;;;;;;;0.30;0.30;;;21.40;48.30;;;;;;4832964;28;20211;-80
2021/07/12 09:49:10;;;;;;;0.30;0.30;;;21.90;48.20;;;;;;4831499;28;20264;-77
2021/07/12 09:51:57;;;;;;;0.30;0.30;;;22.20;49.40;;;;;;4820537;28;20185;-78
2021/07/12 09:54:40;;;;;;;0.23;0.23;;;22.30;49.80;;;;;;4840913;28;20180;-77
2021/07/12 09:57:28;;;;;;;0.50;0.40;;;22.10;49.50;;;;;;4842726;28;20665;-78
2021/07/12 10:00:14;;;;;;;0.50;0.50;;;22.00;48.70;;;;;;4835425;28;20192;-79
2021/07/12 10:02:55;;;;;;;0.40;0.40;;;;;;;;;;4835441;28;20191;-78
2021/07/12 10:05:37;;;;;;;0.27;0.27;;;;;;;;;;4837282;28;20232;-77
2021/07/12 10:08:19;;;;;;;0.30;0.30;;;;;;;;;;4828755;28;20836;-79
2021/07/12 10:11:00;;;;;;;0.43;0.43;;;;;;;;;;4824119;28;20671;-80
2021/07/12 10:13:41;;;;;;;0.40;0.40;;;;;;;;;;4830407;28;20220;-77
2021/07/12 10:16:24;;;;;;;0.30;0.30;;;23.50;50.80;;;;;;4825130;28;20189;-78
2021/07/12 10:19:05;;;;;;;0.60;0.60;;;23.10;50.60;;;;;;4817927;28;20183;-78
2021/07/12 10:21:50;;;;;;;0.10;0.10;;;23.20;50.80;;;;;;4818038;28;20181;-78
2021/07/12 10:24:37;;;;;;;0.30;0.30;;;23.20;51.10;;;;;;4819708;28;20226;-79
2021/07/12 10:27:24;;;;;;;0.20;0.20;;;23.70;51.10;;;;;;4819576;28;20225;-80
2021/07/12 10:30:23;;;;;;;0.50;0.50;;;22.60;50.20;;;;;;4817797;28;20182;-79
2021/07/12 10:33:08;;;;;;;0.60;0.57;;;22.30;50.40;;;;;;4816864;28;20628;-79
2021/07/12 10:35:53;;;;;;;0.20;0.20;;;22.10;49.90;;;;;;4819148;28;20201;-78
2021/07/12 10:38:38;;;;;;;0.77;0.77;;;22.60;50.10;;;;;;4817890;28;20189;-81
2021/07/12 10:41:21;;;;;;;0.20;0.20;;;22.20;49.70;;;;;;4819558;28;20190;-79
2021/07/12 10:44:03;;;;;;;0.30;0.30;;;;;;;;;;4812594;28;20225;-80
2021/07/12 10:46:46;;;;;;;0.20;0.20;;;;;;;;;;4799695;28;20215;-79
2021/07/12 10:49:40;;;;;;;0.30;0.30;;;22.40;49.50;;;;;;4799038;28;20208;-78
2021/07/12 10:52:45;;;;;;;0.40;0.40;;;22.40;49.30;;;;;;4800704;28;20268;-78
2021/07/12 10:55:30;;;;;;;0.37;0.37;;;22.10;50.00;;;;;;4788207;28;20210;-79
2021/07/12 10:58:46;;;;;;;0.30;0.30;;;22.60;50.30;;;;;;4812971;28;20237;-78
2021/07/12 11:01:39;;;;;;;0.20;0.20;;;22.10;50.30;;;;;;4817298;28;20204;-78
2021/07/12 11:04:51;;;;;;;0.27;0.27;;;22.50;50.30;;;;;;4817344;28;20186;-78
2021/07/12 11:07:41;;;;;;;0.20;0.20;;;22.20;50.40;;;;;;4817102;28;20218;-77
2021/07/12 11:10:25;;;;;;;0.20;0.20;;;22.50;50.90;;;;;;4818465;28;20191;-77
2021/07/12 11:13:11;;;;;;;0.57;0.57;;;;;;;;;;4818803;28;20182;-78
2021/07/12 11:15:52;;;;;;;0.30;0.30;;;;;;;;;;4818009;28;20170;-77
2021/07/12 11:18:36;;;;;;;0.70;0.70;;;22.70;51.00;;;;;;4817078;28;20186;-78
2021/07/12 11:21:28;;;;;;;0.20;0.20;;;23.80;50.90;;;;;;4817642;28;20187;-77
2021/07/12 11:24:20;;;;;;;0.40;0.40;;;24.80;52.40;;;;;;4811269;28;20196;-77
2021/07/12 11:27:06;;;;;;;2.87;1.60;;;25.80;38.20;;;;;;4810640;28;20755;-77
2021/07/12 11:29:47;;;;;;;1.60;0.80;;;26.10;38.80;;;;;;4799391;28;20196;-77
2021/07/12 11:32:37;;;;;;;1.13;0.67;;;26.40;39.60;;;;;;4799172;28;20178;-77
2021/07/12 11:35:18;;;;;;;1.27;0.73;;;;;;;;;;4799971;28;20186;-78
2021/07/12 11:38:00;;;;;;;1.57;0.87;;;25.80;40.40;;;;;;4797447;28;20185;-77
2021/07/12 11:40:43;;;;;;;0.80;0.57;;;26.30;41.00;;;;;;4799689;28;20182;-77
2021/07/12 11:43:27;;;;;;;1.27;0.70;;;26.90;41.00;;;;;;4827368;28;20201;-76
2021/07/12 11:46:14;;;;;;;3.87;1.40;;;28.80;42.00;;;;;;4837303;28;20278;-79
2021/07/12 11:49:05;;;;;;;2.73;0.83;;;30.90;43.60;;;;;;4835755;28;20592;-78
2021/07/12 11:51:51;;;;;;;5.43;1.67;;;32.70;45.30;;;;;;4849754;28;20188;-78
2021/07/12 11:54:33;;;;;;;2.55;0.73;;;34.80;46.50;;;;;;4831983;28;20265;-77
2021/07/12 11:57:16;;;;;;;7.00;1.85;;;35.60;47.70;;;;;;4820460;28;20226;-76
2021/07/12 11:59:58;;;;;;;1.67;0.73;;;;;;;;;;4816834;28;20179;-80
2021/07/12 12:02:40;;;;;;;3.28;1.08;;;38.20;50.10;;;;;;4837767;28;20175;-76
2021/07/12 12:05:21;;;;;;;2.08;0.75;;;;;;;;;;4820236;28;20214;-77
2021/07/12 12:08:03;;;;;;;4.53;1.40;;;;;;;;;;4831972;28;20533;-79
2021/07/12 12:10:45;;;;;;;2.30;0.77;;;39.90;50.90;;;;;;4817223;28;20183;-77
2021/07/12 12:13:29;;;;;;;3.22;1.13;;;40.50;51.20;;;;;;4821856;28;20179;-79
2021/07/12 12:16:12;;;;;;;5.20;1.58;;;41.10;51.50;;;;;;4840497;28;20549;-79
2021/07/12 12:18:54;;;;;;;3.53;1.05;;;41.10;51.50;;;;;;4824410;28;20187;-79
2021/07/12 12:21:40;;;;;;;2.00;0.65;;;41.10;51.80;;;;;;4826456;28;20188;-80
2021/07/12 12:24:21;;;;;;;2.78;0.82;;;41.90;51.90;;;;;;4828090;28;20274;-78
2021/07/12 12:27:03;;;;;;;5.68;1.75;;;;;;;;;;4826299;28;20187;-79
2021/07/12 12:29:45;;;;;;;4.38;1.45;;;43.00;52.50;;;;;;4818653;28;20765;-80
2021/07/12 12:32:31;;;;;;;3.65;1.10;;;43.90;52.80;;;;;;4827910;28;20187;-80
2021/07/12 12:35:13;;;;;;;5.28;1.38;;;44.60;53.20;;;;;;4820236;28;20183;-80
2021/07/12 12:37:55;;;;;;;4.68;1.35;;;45.60;53.60;;;;;;4802030;28;20575;-80
2021/07/12 12:40:37;;;;;;;2.25;0.70;;;46.20;53.80;;;;;;4816843;28;20684;-83
2021/07/12 12:43:19;;;;;;;3.90;0.98;;;;;;;;;;4821572;28;20649;-80
2021/07/12 12:46:04;;;;;;;5.13;1.45;;;47.40;54.30;;;;;;4849400;28;20226;-81
2021/07/12 12:48:45;;;;;;;7.93;2.13;;;;;;;;;;4825462;28;20713;-84
2021/07/12 12:51:32;;;;;;;2.70;0.85;;;47.90;54.50;;;;;;4849161;28;20687;-81
2021/07/12 12:54:14;;;;;;;5.82;1.48;;;;;;;;;;4812056;28;20199;-83
2021/07/12 12:56:57;;;;;;;4.70;1.23;;;49.30;55.10;;;;;;4804616;28;20219;-81
2021/07/12 12:59:41;;;;;;;1.88;0.65;;;48.20;54.80;;;;;;4853545;28;20182;-84
2021/07/12 13:02:24;;;;;;;4.63;1.30;;;47.40;54.50;;;;;;4846759;28;20195;-78
2021/07/12 13:05:10;;;;;;;6.20;1.58;;;48.10;54.50;;;;;;4827446;28;20183;-79
2021/07/12 13:07:54;;;;;;;3.85;1.20;;;48.40;54.90;;;;;;4843705;28;20552;-83
2021/07/12 13:10:36;;;;;;;3.13;0.95;;;;;;;;;;4805083;28;20512;-87
2021/07/12 13:13:19;;;;;;;4.93;1.48;;;;;;;;;;4852908;28;20178;-89
2021/07/12 13:16:12;;;;;;;4.57;1.42;;;48.30;54.70;;;;;;4820939;28;20661;-79
2021/07/12 13:18:55;;;;;;;3.30;1.02;;;48.10;54.80;;;;;;4834058;28;20270;-80
2021/07/12 13:21:50;;;;;;;1.75;0.60;;;48.00;54.70;;;;;;4820768;28;20187;-78
2021/07/12 13:24:42;;;;;;;4.22;1.50;;;47.50;54.60;;;;;;4833818;28;20183;-79
2021/07/12 13:27:25;;;;;;;1.60;0.60;;;44.60;53.70;;;;;;4821355;28;20211;-79
2021/07/12 13:30:09;;;;;;;3.35;1.23;;;43.30;53.00;;;;;;4820876;28;20198;-78
2021/07/12 13:32:52;;;;;;;3.72;1.30;;;41.40;52.60;;;;;;4820742;28;20179;-82
2021/07/12 13:35:36;;;;;;;2.40;0.93;;;39.40;51.80;;;;;;4820432;28;20175;-79
2021/07/12 13:38:18;;;;;;;2.90;0.88;;;37.90;51.30;;;;;;4821198;28;20175;-83
2021/07/12 13:40:59;;;;;;;2.13;0.80;;;;;;;;;;4820991;28;20183;-80
2021/07/12 13:43:40;;;;;;;1.33;0.55;;;;;;;;;;4836911;28;20214;-79
2021/07/12 13:46:22;;;;;;;2.28;0.85;;;;;;;;;;4852066;28;20257;-82
2021/07/12 13:49:03;;;;;;;4.47;1.55;;;35.30;50.10;;;;;;4852371;28;20182;-79
2021/07/12 13:51:46;;;;;;;1.48;0.63;;;36.60;50.60;;;;;;4840237;28;20187;-84
2021/07/12 13:54:27;;;;;;;1.55;0.63;;;37.60;50.60;;;;;;4838619;28;20179;-81
2021/07/12 13:57:08;;;;;;;4.43;1.80;;;39.00;51.10;;;;;;4851565;28;20889;-80
2021/07/12 13:59:54;;;;;;;1.98;0.80;;;38.30;51.10;;;;;;4853400;28;20190;-84
2021/07/12 14:02:36;;;;;;;0.93;0.40;;;;;;;;;;4850775;28;20230;-85
2021/07/12 14:05:18;;;;;;;3.20;1.08;;;38.10;50.90;;;;;;4838644;28;20182;-77
2021/07/12 14:08:01;;;;;;;3.63;1.35;;;38.00;51.20;;;;;;4838391;28;20210;-79
2021/07/12 14:10:42;;;;;;;1.52;0.75;;;36.70;50.50;;;;;;4839588;28;20195;-86
2021/07/12 14:13:23;;;;;;;1.35;0.70;;;34.20;49.90;;;;;;4853660;28;20174;-79
2021/07/12 14:16:05;;;;;;;4.18;1.75;;;34.40;49.50;;;;;;4855290;28;20206;-77
2021/07/12 14:18:50;;;;;;;2.50;1.30;;;;;;;;;;4837805;28;20187;-77
2021/07/12 14:21:31;;;;;;;1.95;0.85;;;;;;;;;;4840246;28;20588;-83
2021/07/12 14:24:14;;;;;;;2.03;0.98;;;31.10;48.30;;;;;;4852749;28;20186;-83
2021/07/12 14:26:56;;;;;;;1.73;0.75;;;30.30;48.00;;;;;;4838855;28;20183;-83
2021/07/12 14:29:39;;;;;;;1.97;0.90;;;29.60;47.60;;;;;;4852437;28;20182;-83
2021/07/12 14:32:20;;;;;;;0.67;0.47;;;;;;;;;;4853172;28;20649;-89
2021/07/12 14:35:01;;;;;;;1.87;0.90;;;;;;;;;;4839601;28;20590;-88
2021/07/12 14:37:42;;;;;;;0.77;0.47;;;;;;;;;;4852523;28;20271;-90
2021/07/12 14:40:25;;;;;;;1.83;0.93;;;28.00;46.60;;;;;;4852399;28;20184;-84
2021/07/12 14:43:06;;;;;;;2.10;1.33;;;;;;;;;;4828380;28;20190;-83